createdAt,value
2023-01-19T00:01:34.976Z,99458.06
2023-01-19T00:04:04.937Z,99447.53
2023-01-19T00:06:34.702Z,99414.34
2023-01-19T00:09:04.561Z,99458.25
2023-01-19T00:11:36.869Z,99434.50
2023-01-19T00:14:07.128Z,99462.75
2023-01-19T00:16:37.153Z,99440.88
2023-01-19T00:19:07.194Z,99467.28
2023-01-19T00:21:36.914Z,99463.88
2023-01-19T00:24:07.355Z,99455.50
2023-01-19T00:26:40.484Z,99421.50
2023-01-19T00:29:10.479Z,99416.94
2023-01-19T00:31:40.967Z,99451.34
2023-01-19T00:34:11.281Z,99471.03
2023-01-19T00:36:40.984Z,99483.69
2023-01-19T00:39:11.065Z,99467.66
2023-01-19T00:41:55.842Z,99467.88
2023-01-19T00:44:25.519Z,99472.75
2023-01-19T00:46:55.188Z,99466.63
2023-01-19T00:49:24.883Z,99448.97
2023-01-19T00:51:54.545Z,99466.69
2023-01-19T00:54:24.446Z,99444.78
2023-01-19T00:56:57.424Z,99398.41
2023-01-19T00:59:28.541Z,99450.81
2023-01-19T01:01:58.430Z,99456.25
2023-01-19T01:04:28.274Z,99435.38
2023-01-19T01:06:57.967Z,99436.78
2023-01-19T01:09:27.759Z,99452.09
2023-01-19T01:11:59.995Z,99448.56
2023-01-19T01:14:29.645Z,99440.19
2023-01-19T01:16:59.342Z,99447.72
2023-01-19T01:19:29.127Z,99462.88
2023-01-19T01:21:58.813Z,99476.13
2023-01-19T01:24:28.468Z,99473.91
2023-01-19T01:27:00.770Z,99464.34
2023-01-19T01:29:30.447Z,99467.28
2023-01-19T01:32:00.136Z,99455.47
2023-01-19T01:34:29.929Z,99463.41
2023-01-19T01:36:59.754Z,99465.78
2023-01-19T01:39:29.580Z,99416.13
2023-01-19T01:42:01.853Z,99456.66
2023-01-19T01:44:50.007Z,99461.00
2023-01-19T01:47:29.707Z,99431.63
2023-01-19T01:50:06.431Z,99456.56
2023-01-19T01:52:39.573Z,99450.91
2023-01-19T01:55:11.115Z,99461.00
2023-01-19T01:57:49.052Z,99428.94
2023-01-19T02:00:19.909Z,99442.00
2023-01-19T02:02:53.607Z,99449.97
2023-01-19T02:05:27.154Z,99462.94
2023-01-19T02:08:13.885Z,99443.84
2023-01-19T02:10:57.368Z,99451.22
2023-01-19T02:13:30.752Z,99471.50
2023-01-19T02:16:03.614Z,99452.94
2023-01-19T02:18:34.900Z,99460.25
2023-01-19T02:21:12.844Z,99460.44
2023-01-19T02:23:47.719Z,99469.78
2023-01-19T02:26:21.663Z,99460.88
2023-01-19T02:28:57.510Z,99463.44
2023-01-19T02:31:27.741Z,99466.94
2023-01-19T02:33:57.810Z,99465.28
2023-01-19T02:36:30.112Z,99439.69
2023-01-19T02:39:04.432Z,99465.47
2023-01-19T02:41:41.033Z,99471.56
2023-01-19T02:44:12.754Z,99468.25
2023-01-19T02:46:42.377Z,99444.72
2023-01-19T02:49:12.034Z,99471.06
2023-01-19T02:51:42.148Z,99473.88
2023-01-19T02:54:48.170Z,99466.97
2023-01-19T02:57:43.713Z,99473.81
2023-01-19T03:00:24.395Z,99476.50
2023-01-19T03:03:06.063Z,99464.72
2023-01-19T03:05:49.372Z,99466.94
2023-01-19T03:08:25.475Z,99467.50
2023-01-19T03:11:04.342Z,99451.41
2023-01-19T03:13:44.601Z,99455.63
2023-01-19T03:16:21.865Z,99461.53
2023-01-19T03:18:56.618Z,99428.56
2023-01-19T03:21:30.228Z,99461.19
2023-01-19T03:24:04.197Z,99466.22
2023-01-19T03:26:41.693Z,99465.31
2023-01-19T03:29:13.138Z,99460.97
2023-01-19T03:31:46.547Z,99422.94
2023-01-19T03:34:22.055Z,99469.31
2023-01-19T03:36:55.658Z,99472.44
2023-01-19T03:39:27.509Z,99476.94
2023-01-19T03:42:03.995Z,99474.56
2023-01-19T03:44:37.232Z,99462.13
2023-01-19T03:47:08.850Z,99449.41
2023-01-19T03:49:40.029Z,99440.56
2023-01-19T03:52:09.767Z,99463.13
2023-01-19T03:54:39.747Z,99463.34
2023-01-19T03:57:12.962Z,99458.38
2023-01-19T03:59:42.756Z,99445.66
2023-01-19T04:02:12.571Z,99442.66
2023-01-19T04:04:42.312Z,99445.50
2023-01-19T04:07:12.868Z,99444.00
2023-01-19T04:09:43.513Z,99444.69
2023-01-19T04:12:15.744Z,99453.16
2023-01-19T04:14:45.396Z,99407.84
2023-01-19T04:17:16.182Z,99453.75
2023-01-19T04:19:45.979Z,99441.47
2023-01-19T04:22:15.613Z,99429.50
2023-01-19T04:24:45.233Z,99441.91
2023-01-19T04:27:17.769Z,99430.13
2023-01-19T04:29:47.454Z,99426.78
2023-01-19T04:32:17.535Z,99396.00
2023-01-19T04:34:47.237Z,99415.34
2023-01-19T04:37:16.899Z,99433.38
2023-01-19T04:39:46.581Z,99430.44
2023-01-19T04:42:19.815Z,99430.06
2023-01-19T04:44:49.484Z,99428.91
2023-01-19T04:47:19.158Z,99423.50
2023-01-19T04:49:48.891Z,99407.78
2023-01-19T04:52:18.633Z,99402.75
2023-01-19T04:54:48.517Z,99418.00
2023-01-19T04:57:20.754Z,99424.00
2023-01-19T04:59:50.376Z,99427.06
2023-01-19T05:02:20.437Z,99417.13
2023-01-19T05:04:50.108Z,99420.56
2023-01-19T05:07:20.233Z,99419.72
2023-01-19T05:09:49.959Z,99404.41
2023-01-19T05:12:22.465Z,99428.59
2023-01-19T05:14:52.109Z,99433.50
2023-01-19T05:17:21.800Z,99434.09
2023-01-19T05:19:51.543Z,99437.81
2023-01-19T05:22:21.259Z,99410.28
2023-01-19T05:24:50.873Z,99436.81
2023-01-19T05:27:23.275Z,99443.97
2023-01-19T05:29:52.950Z,99443.78
2023-01-19T05:32:22.616Z,99427.69
2023-01-19T05:34:52.322Z,99447.22
2023-01-19T05:37:22.137Z,99447.31
2023-01-19T05:39:51.822Z,99443.88
2023-01-19T05:42:24.142Z,99439.50
2023-01-19T05:44:53.800Z,99428.41
2023-01-19T05:47:23.480Z,99440.00
2023-01-19T05:49:53.097Z,99434.13
2023-01-19T05:52:22.794Z,99443.47
2023-01-19T05:54:52.491Z,99442.56
2023-01-19T05:57:24.821Z,99445.78
2023-01-19T05:59:54.558Z,99442.84
2023-01-19T06:02:28.753Z,99410.72
2023-01-19T06:04:59.245Z,99450.16
2023-01-19T06:07:29.266Z,99444.19
2023-01-19T06:09:59.106Z,99437.44
2023-01-19T06:12:32.587Z,99439.22
2023-01-19T06:15:02.298Z,99427.75
2023-01-19T06:17:31.977Z,99446.69
2023-01-19T06:20:01.654Z,99429.53
2023-01-19T06:22:31.340Z,99438.53
2023-01-19T06:25:01.040Z,99455.56
2023-01-19T06:27:33.307Z,99420.00
2023-01-19T06:30:03.005Z,99426.88
2023-01-19T06:32:32.648Z,99451.16
2023-01-19T06:35:02.356Z,99440.03
2023-01-19T06:37:32.098Z,99441.59
2023-01-19T06:40:01.785Z,99462.31
2023-01-19T06:42:34.473Z,99456.56
2023-01-19T06:45:04.162Z,99438.53
2023-01-19T06:47:34.483Z,99464.47
2023-01-19T06:50:04.574Z,99441.06
2023-01-19T06:52:34.833Z,99447.44
2023-01-19T06:55:04.489Z,99450.81
2023-01-19T06:57:36.930Z,99468.03
2023-01-19T07:00:08.968Z,99470.00
2023-01-19T07:02:38.905Z,99458.97
2023-01-19T07:05:09.684Z,99460.88
2023-01-19T07:07:39.787Z,99469.03
2023-01-19T07:10:11.827Z,99488.19
2023-01-19T07:12:45.120Z,99497.09
2023-01-19T07:15:14.992Z,99469.25
2023-01-19T07:17:44.866Z,99499.09
2023-01-19T07:20:17.521Z,99492.91
2023-01-19T07:22:47.388Z,99472.91
2023-01-19T07:25:18.010Z,99508.72
2023-01-19T07:27:50.369Z,99482.13
2023-01-19T07:30:20.334Z,99503.75
2023-01-19T07:32:50.209Z,99497.66
2023-01-19T07:35:22.183Z,99513.66
2023-01-19T07:37:51.959Z,99511.16
2023-01-19T07:40:23.928Z,99536.41
2023-01-19T07:42:56.375Z,99529.78
2023-01-19T07:45:28.046Z,99527.13
2023-01-19T07:47:57.763Z,99515.19
2023-01-19T07:50:29.330Z,99506.41
2023-01-19T07:52:59.796Z,99535.84
2023-01-19T07:55:29.622Z,99545.16
2023-01-19T07:58:03.994Z,99533.06
2023-01-19T08:00:33.722Z,99539.72
2023-01-19T08:03:04.379Z,99548.91
2023-01-19T08:05:35.631Z,99536.44
2023-01-19T08:08:05.630Z,99544.44
2023-01-19T08:10:35.561Z,99552.59
2023-01-19T08:13:08.328Z,99550.94
2023-01-19T08:15:38.134Z,99564.69
2023-01-19T08:18:09.831Z,99540.19
2023-01-19T08:20:39.903Z,99572.28
2023-01-19T08:23:09.633Z,99576.34
2023-01-19T08:25:42.264Z,99576.75
2023-01-19T08:28:16.395Z,99576.47
2023-01-19T08:30:47.453Z,99581.94
2023-01-19T08:33:17.678Z,99559.25
2023-01-19T08:35:51.056Z,99590.06
2023-01-19T08:38:21.145Z,99594.47
2023-01-19T08:40:51.667Z,99597.44
2023-01-19T08:43:24.010Z,99557.25
2023-01-19T08:45:56.500Z,99584.38
2023-01-19T08:48:26.865Z,99560.22
2023-01-19T08:50:56.622Z,99565.22
2023-01-19T08:53:26.959Z,99598.19
2023-01-19T08:56:00.073Z,99571.53
2023-01-19T08:58:32.439Z,99567.97
2023-01-19T09:01:04.053Z,99614.28
2023-01-19T09:03:34.066Z,99592.53
2023-01-19T09:06:03.833Z,99602.69
2023-01-19T09:08:33.568Z,99625.91
2023-01-19T09:11:03.344Z,99606.22
2023-01-19T09:13:35.608Z,99628.53
2023-01-19T09:16:07.810Z,99627.41
2023-01-19T09:18:38.521Z,99625.38
2023-01-19T09:21:08.564Z,99587.16
2023-01-19T09:23:38.265Z,99640.44
2023-01-19T09:26:09.003Z,99645.00
2023-01-19T09:28:41.309Z,99659.28
2023-01-19T09:31:11.604Z,99670.47
2023-01-19T09:33:41.337Z,99670.03
2023-01-19T09:36:11.212Z,99668.56
2023-01-19T09:38:41.132Z,99599.81
2023-01-19T09:41:19.746Z,99677.69
2023-01-19T09:43:56.817Z,99678.34
2023-01-19T09:46:32.801Z,99673.34
2023-01-19T09:49:06.760Z,99673.56
2023-01-19T09:51:39.174Z,99679.38
2023-01-19T09:54:15.820Z,99661.25
2023-01-19T09:56:46.451Z,99674.84
2023-01-19T09:59:28.027Z,99687.66
2023-01-19T10:02:09.629Z,99692.50
2023-01-19T10:04:42.684Z,99684.19
2023-01-19T10:07:18.773Z,99690.78
2023-01-19T10:10:11.165Z,99687.06
2023-01-19T10:12:51.143Z,99688.53
2023-01-19T10:15:33.239Z,99682.19
2023-01-19T10:18:20.249Z,99692.34
2023-01-19T10:20:53.679Z,99684.34
2023-01-19T10:23:39.799Z,99703.09
2023-01-19T10:26:14.888Z,99693.50
2023-01-19T10:28:46.063Z,99704.94
2023-01-19T10:31:21.395Z,99704.31
2023-01-19T10:33:52.361Z,99700.06
2023-01-19T10:36:24.994Z,99703.16
2023-01-19T10:38:54.912Z,99677.84
2023-01-19T10:41:29.755Z,99703.91
2023-01-19T10:44:04.393Z,99697.47
2023-01-19T10:46:44.669Z,99695.47
2023-01-19T10:49:28.139Z,99673.34
2023-01-19T10:51:59.179Z,99684.63
2023-01-19T10:54:30.519Z,99679.19
2023-01-19T10:57:02.843Z,99664.69
2023-01-19T10:59:35.085Z,99710.13
2023-01-19T11:02:21.561Z,99711.06
2023-01-19T11:04:53.328Z,99715.91
2023-01-19T11:07:24.794Z,99718.03
2023-01-19T11:10:15.559Z,99711.66
2023-01-19T11:12:46.733Z,99727.69
2023-01-19T11:15:19.113Z,99708.41
2023-01-19T11:17:53.671Z,99728.41
2023-01-19T11:20:26.913Z,99701.63
2023-01-19T11:23:22.450Z,99728.84
2023-01-19T11:25:54.361Z,99736.00
2023-01-19T11:28:30.067Z,99728.81
2023-01-19T11:31:01.977Z,99710.06
2023-01-19T11:33:40.180Z,99725.28
2023-01-19T11:36:17.803Z,99746.47
2023-01-19T11:38:50.573Z,99730.66
2023-01-19T11:41:22.760Z,99724.25
2023-01-19T11:43:56.372Z,99730.53
2023-01-19T11:46:29.723Z,99730.81
2023-01-19T11:49:05.619Z,99735.06
2023-01-19T11:51:41.786Z,99724.69
2023-01-19T11:54:23.760Z,99731.22
2023-01-19T11:56:57.136Z,99720.78
2023-01-19T11:59:27.045Z,99725.19
2023-01-19T12:02:00.263Z,99739.09
2023-01-19T12:04:36.049Z,99739.25
2023-01-19T12:07:10.694Z,99751.53
2023-01-19T12:09:45.626Z,99755.94
2023-01-19T12:12:18.560Z,99733.66
2023-01-19T12:14:57.436Z,99749.09
2023-01-19T12:17:30.272Z,99751.16
2023-01-19T12:20:15.949Z,99760.38
2023-01-19T12:22:50.858Z,99760.91
2023-01-19T12:25:24.929Z,99739.59
2023-01-19T12:27:56.157Z,99750.00
2023-01-19T12:30:28.499Z,99764.06
2023-01-19T12:33:29.076Z,99766.63
2023-01-19T12:36:04.060Z,99766.97
2023-01-19T12:38:47.212Z,99773.84
2023-01-19T12:41:22.677Z,99768.78
2023-01-19T12:44:07.842Z,99728.22
2023-01-19T12:46:37.988Z,99773.91
2023-01-19T12:49:13.561Z,99774.28
2023-01-19T12:51:46.616Z,99770.69
2023-01-19T12:54:27.982Z,99777.28
2023-01-19T12:57:03.494Z,99768.72
2023-01-19T12:59:40.100Z,99788.88
2023-01-19T13:02:43.917Z,99781.81
2023-01-19T13:05:47.572Z,99787.19
2023-01-19T13:08:24.886Z,99787.41
2023-01-19T13:11:26.260Z,99795.03
2023-01-19T13:14:32.221Z,99797.56
2023-01-19T13:17:20.094Z,99790.97
2023-01-19T13:20:02.544Z,99804.69
2023-01-19T13:23:05.248Z,99800.75
2023-01-19T13:25:38.353Z,99766.31
2023-01-19T13:28:12.728Z,99808.13
2023-01-19T13:30:55.003Z,99816.53
2023-01-19T13:33:27.078Z,99808.09
2023-01-19T13:35:59.471Z,99816.41
2023-01-19T13:38:32.928Z,99820.88
2023-01-19T13:41:06.497Z,99826.31
2023-01-19T13:43:40.957Z,99797.47
2023-01-19T13:46:14.239Z,99823.19
2023-01-19T13:48:56.710Z,99836.81
2023-01-19T13:51:26.414Z,99825.78
2023-01-19T13:53:57.301Z,99836.81
2023-01-19T13:56:31.689Z,99841.72
2023-01-19T13:59:10.283Z,99840.84
2023-01-19T14:01:45.305Z,99851.06
2023-01-19T14:04:32.452Z,99855.44
2023-01-19T14:07:05.273Z,99840.38
2023-01-19T14:09:35.128Z,99864.06
2023-01-19T14:12:15.224Z,99860.69
2023-01-19T14:14:46.808Z,99875.44
2023-01-19T14:17:28.657Z,99866.06
2023-01-19T14:20:00.981Z,99867.66
2023-01-19T14:22:45.079Z,99876.91
2023-01-19T14:25:29.371Z,99862.25
2023-01-19T14:28:39.405Z,99887.84
2023-01-19T14:31:23.689Z,99896.13
2023-01-19T14:33:55.345Z,99888.75
2023-01-19T14:36:33.289Z,99900.44
2023-01-19T14:39:03.996Z,99890.00
2023-01-19T14:41:41.723Z,99917.44
2023-01-19T14:44:20.411Z,99913.41
2023-01-19T14:46:51.544Z,99911.25
2023-01-19T14:49:24.947Z,99917.44
2023-01-19T14:51:56.084Z,99917.38
2023-01-19T14:54:34.126Z,99926.56
2023-01-19T14:57:03.833Z,99931.03
2023-01-19T14:59:36.060Z,99932.88
2023-01-19T15:02:05.802Z,99933.41
2023-01-19T15:04:35.608Z,99938.31
2023-01-19T15:07:05.483Z,99942.25
2023-01-19T15:09:35.317Z,99949.72
2023-01-19T15:12:05.189Z,99945.59
2023-01-19T15:14:37.420Z,99949.25
2023-01-19T15:17:07.262Z,99949.63
2023-01-19T15:19:36.957Z,99956.69
2023-01-19T15:22:14.853Z,99951.16
2023-01-19T15:24:44.524Z,99967.25
2023-01-19T15:27:14.860Z,99956.88
2023-01-19T15:29:47.081Z,99977.31
2023-01-19T15:32:17.731Z,99956.19
2023-01-19T15:34:47.374Z,99970.63
2023-01-19T15:37:17.036Z,99983.91
2023-01-19T15:39:46.688Z,99983.03
2023-01-19T15:42:17.366Z,99986.16
2023-01-19T15:44:49.626Z,99983.81
2023-01-19T15:47:19.522Z,99991.84
2023-01-19T15:49:49.143Z,99999.53
2023-01-19T15:52:18.980Z,99958.41
2023-01-19T15:54:48.603Z,99995.03
2023-01-19T15:57:18.294Z,99994.13
2023-01-19T15:59:51.494Z,99996.16
2023-01-19T16:02:21.392Z,100007.75
2023-01-19T16:04:51.381Z,99994.72
2023-01-19T16:07:21.284Z,99999.53
2023-01-19T16:09:50.951Z,100015.50
2023-01-19T16:12:20.609Z,100022.63
2023-01-19T16:14:52.819Z,100020.88
2023-01-19T16:17:22.947Z,100029.22
2023-01-19T16:19:52.591Z,100007.09
2023-01-19T16:22:22.225Z,100023.66
2023-01-19T16:24:53.101Z,100014.84
2023-01-19T16:27:22.780Z,100020.63
2023-01-19T16:29:55.083Z,100030.63
2023-01-19T16:32:24.790Z,100028.53
2023-01-19T16:34:54.420Z,100030.63
2023-01-19T16:37:24.060Z,100005.09
2023-01-19T16:39:54.200Z,100026.31
2023-01-19T16:42:23.945Z,100039.56
2023-01-19T16:44:56.537Z,100049.16
2023-01-19T16:47:26.173Z,100042.78
2023-01-19T16:49:56.157Z,100051.81
2023-01-19T16:52:25.994Z,100045.66
2023-01-19T16:54:55.638Z,100051.44
2023-01-19T16:57:25.449Z,100053.00
2023-01-19T16:59:57.670Z,100052.69
2023-01-19T17:02:27.369Z,100057.78
2023-01-19T17:04:57.152Z,100076.56
2023-01-19T17:07:26.994Z,100074.72
2023-01-19T17:09:57.548Z,100069.22
2023-01-19T17:12:27.532Z,100092.25
2023-01-19T17:14:59.766Z,100080.16
2023-01-19T17:17:44.484Z,100092.75
2023-01-19T17:20:15.067Z,100092.19
2023-01-19T17:22:44.729Z,100087.16
2023-01-19T17:25:14.345Z,100087.28
2023-01-19T17:27:43.985Z,100098.41
2023-01-19T17:30:17.184Z,100094.09
2023-01-19T17:32:46.850Z,100087.91
2023-01-19T17:35:16.507Z,100099.97
2023-01-19T17:37:46.478Z,100105.81
2023-01-19T17:40:16.223Z,100011.91
2023-01-19T17:42:46.137Z,100114.03
2023-01-19T17:45:18.658Z,100114.63
2023-01-19T17:47:50.926Z,100119.16
2023-01-19T17:50:21.124Z,100121.94
2023-01-19T17:52:51.062Z,100107.66
2023-01-19T17:55:20.796Z,100086.03
2023-01-19T17:57:50.748Z,100116.91
2023-01-19T18:00:24.120Z,100109.63
2023-01-19T18:02:54.389Z,100137.66
2023-01-19T18:05:25.548Z,100141.75
2023-01-19T18:07:55.484Z,100138.09
2023-01-19T18:10:25.581Z,100126.00
2023-01-19T18:12:55.245Z,100145.75
2023-01-19T18:15:27.812Z,100139.91
2023-01-19T18:17:57.794Z,100124.41
2023-01-19T18:20:27.452Z,100146.00
2023-01-19T18:22:57.134Z,100133.03
2023-01-19T18:25:27.047Z,100142.06
2023-01-19T18:27:56.690Z,100135.88
2023-01-19T18:30:31.172Z,100141.91
2023-01-19T18:33:01.140Z,100139.94
2023-01-19T18:35:31.133Z,100147.88
2023-01-19T18:38:01.229Z,100147.53
2023-01-19T18:40:30.989Z,100153.59
2023-01-19T18:43:00.678Z,100141.59
2023-01-19T18:45:32.942Z,100130.38
2023-01-19T18:48:03.470Z,100156.97
2023-01-19T18:50:34.022Z,100120.63
2023-01-19T18:53:03.997Z,100134.09
2023-01-19T18:55:33.678Z,100157.56
2023-01-19T18:58:04.250Z,100155.94
2023-01-19T19:00:36.440Z,100150.13
2023-01-19T19:03:10.303Z,100164.97
2023-01-19T19:05:40.386Z,100159.94
2023-01-19T19:08:10.347Z,100136.75
2023-01-19T19:10:40.300Z,100163.19
2023-01-19T19:13:10.710Z,100151.09
2023-01-19T19:15:44.415Z,100146.91
2023-01-19T19:18:16.330Z,100160.13
2023-01-19T19:20:46.566Z,100150.19
2023-01-19T19:23:16.229Z,100148.09
2023-01-19T19:25:46.178Z,100123.31
2023-01-19T19:28:15.852Z,100175.84
2023-01-19T19:30:51.426Z,100170.84
2023-01-19T19:33:22.623Z,100109.50
2023-01-19T19:35:59.133Z,100184.66
2023-01-19T19:38:29.417Z,100162.19
2023-01-19T19:41:00.490Z,100185.31
2023-01-19T19:43:30.474Z,100196.56
2023-01-19T19:46:04.926Z,100196.06
2023-01-19T19:48:37.574Z,100168.00
2023-01-19T19:51:17.953Z,100194.84
2023-01-19T19:53:51.399Z,100175.47
2023-01-19T19:56:23.572Z,100193.06
2023-01-19T19:58:54.784Z,100201.66
2023-01-19T20:01:32.557Z,100204.22
2023-01-19T20:04:09.016Z,100205.22
2023-01-19T20:06:41.586Z,100206.44
2023-01-19T20:09:14.129Z,100202.81
2023-01-19T20:11:44.966Z,100201.63
2023-01-19T20:14:16.883Z,100210.91
2023-01-19T20:16:49.699Z,100216.25
2023-01-19T20:19:19.853Z,100197.50
2023-01-19T20:21:49.853Z,100202.53
2023-01-19T20:24:21.895Z,100227.41
2023-01-19T20:26:56.331Z,100225.31
2023-01-19T20:29:26.557Z,100224.19
2023-01-19T20:31:59.572Z,100216.38
2023-01-19T20:34:33.371Z,100229.03
2023-01-19T20:37:04.822Z,100212.69
2023-01-19T20:39:36.792Z,100225.25
2023-01-19T20:42:11.295Z,100224.59
2023-01-19T20:44:41.299Z,100242.72
2023-01-19T20:47:13.868Z,100254.34
2023-01-19T20:49:43.888Z,100249.72
2023-01-19T20:52:13.661Z,100260.34
2023-01-19T20:54:43.397Z,100252.88
2023-01-19T20:57:13.411Z,100265.66
2023-01-19T20:59:43.405Z,100270.47
2023-01-19T21:02:17.468Z,100253.97
2023-01-19T21:04:47.440Z,100262.56
2023-01-19T21:07:17.092Z,100265.31
2023-01-19T21:09:46.986Z,100273.97
2023-01-19T21:12:16.648Z,100255.59
2023-01-19T21:14:46.543Z,100239.53
2023-01-19T21:17:18.873Z,100271.47
2023-01-19T21:19:48.900Z,100276.06
2023-01-19T21:22:18.706Z,100291.03
2023-01-19T21:24:49.550Z,100265.63
2023-01-19T21:27:19.208Z,100292.31
2023-01-19T21:29:50.337Z,100286.78
2023-01-19T21:32:22.716Z,100270.31
2023-01-19T21:34:52.672Z,100318.19
2023-01-19T21:37:22.653Z,100306.00
2023-01-19T21:39:52.549Z,100306.97
2023-01-19T21:42:22.379Z,100306.41
2023-01-19T21:44:52.357Z,100305.66
2023-01-19T21:47:25.759Z,100293.88
2023-01-19T21:49:55.590Z,100292.56
2023-01-19T21:52:25.247Z,100324.19
2023-01-19T21:54:54.858Z,100320.19
2023-01-19T21:57:24.576Z,100286.44
2023-01-19T21:59:54.195Z,100290.00
2023-01-19T22:02:37.984Z,100322.97
2023-01-19T22:05:09.411Z,100333.09
2023-01-19T22:07:39.167Z,100348.03
2023-01-19T22:10:11.038Z,100345.41
2023-01-19T22:12:41.156Z,100348.19
2023-01-19T22:15:12.545Z,100341.25
2023-01-19T22:17:44.988Z,100353.22
2023-01-19T22:20:15.023Z,100351.72
2023-01-19T22:22:44.652Z,100356.81
2023-01-19T22:25:15.210Z,100361.03
2023-01-19T22:27:45.165Z,100294.59
2023-01-19T22:30:14.977Z,100371.28
2023-01-19T22:32:47.461Z,100366.81
2023-01-19T22:35:17.168Z,100363.56
2023-01-19T22:37:46.788Z,100369.97
2023-01-19T22:40:16.784Z,100380.03
2023-01-19T22:42:48.498Z,100373.59
2023-01-19T22:45:18.176Z,100375.47
2023-01-19T22:47:50.380Z,100387.47
2023-01-19T22:50:20.109Z,100384.09
2023-01-19T22:52:49.761Z,100374.50
2023-01-19T22:55:19.390Z,100394.16
2023-01-19T22:57:49.179Z,100382.13
2023-01-19T23:00:20.118Z,100389.06
2023-01-19T23:02:52.544Z,100396.28
2023-01-19T23:05:22.181Z,100402.41
2023-01-19T23:07:51.826Z,100398.94
2023-01-19T23:10:21.433Z,100402.56
2023-01-19T23:12:51.321Z,100384.31
2023-01-19T23:15:20.938Z,100406.16
2023-01-19T23:17:53.678Z,100401.59
2023-01-19T23:20:23.308Z,100403.66
2023-01-19T23:22:52.960Z,100394.88
2023-01-19T23:25:22.588Z,100406.63
2023-01-19T23:27:52.194Z,100400.50
2023-01-19T23:30:22.335Z,100403.66
2023-01-19T23:32:54.551Z,100401.53
2023-01-19T23:35:24.204Z,100413.06
2023-01-19T23:37:53.908Z,100412.59
2023-01-19T23:40:24.552Z,100414.88
2023-01-19T23:42:54.190Z,100411.00
2023-01-19T23:45:24.354Z,100421.44
2023-01-19T23:47:56.545Z,100417.81
2023-01-19T23:50:26.163Z,100425.94
2023-01-19T23:52:55.790Z,100419.19
2023-01-19T23:55:25.391Z,100409.91
2023-01-19T23:57:55.033Z,100419.34
